sensor_id;sensor_type;location;lat;lon;timestamp;P1;durP1;ratioP1;P2;durP2;ratioP2
35056;SDS011;21241;51.828;19.574;2023-11-21T00:00:57;77.40;;;40.10;;
35056;SDS011;21241;51.828;19.574;2023-11-21T00:03:40;78.80;;;43.00;;
35056;SDS011;21241;51.828;19.574;2023-11-21T00:06:08;76.50;;;42.30;;
35056;SDS011;21241;51.828;19.574;2023-11-21T00:08:38;84.40;;;42.90;;
35056;SDS011;21241;51.828;19.574;2023-11-21T00:11:06;96.40;;;42.90;;
35056;SDS011;21241;51.828;19.574;2023-11-21T00:13:34;74.80;;;41.60;;
35056;SDS011;21241;51.828;19.574;2023-11-21T00:16:03;96.10;;;45.20;;
35056;SDS011;21241;51.828;19.574;2023-11-21T00:18:31;73.20;;;42.40;;
35056;SDS011;21241;51.828;19.574;2023-11-21T00:20:59;82.30;;;43.10;;
35056;SDS011;21241;51.828;19.574;2023-11-21T00:23:27;77.60;;;43.70;;
35056;SDS011;21241;51.828;19.574;2023-11-21T00:25:55;76.70;;;43.50;;
35056;SDS011;21241;51.828;19.574;2023-11-21T00:28:24;84.60;;;44.80;;
35056;SDS011;21241;51.828;19.574;2023-11-21T00:30:52;80.40;;;42.60;;
35056;SDS011;21241;51.828;19.574;2023-11-21T00:33:21;72.80;;;43.40;;
35056;SDS011;21241;51.828;19.574;2023-11-21T00:35:49;84.50;;;43.40;;
35056;SDS011;21241;51.828;19.574;2023-11-21T00:38:17;74.60;;;43.10;;
35056;SDS011;21241;51.828;19.574;2023-11-21T00:40:47;81.20;;;43.70;;
35056;SDS011;21241;51.828;19.574;2023-11-21T00:43:15;89.40;;;45.20;;
35056;SDS011;21241;51.828;19.574;2023-11-21T00:45:43;111.30;;;46.00;;
35056;SDS011;21241;51.828;19.574;2023-11-21T00:48:13;97.00;;;47.00;;
35056;SDS011;21241;51.828;19.574;2023-11-21T00:50:41;80.90;;;42.60;;
35056;SDS011;21241;51.828;19.574;2023-11-21T00:53:09;74.90;;;42.80;;
35056;SDS011;21241;51.828;19.574;2023-11-21T00:55:37;92.00;;;43.20;;
35056;SDS011;21241;51.828;19.574;2023-11-21T00:58:08;95.50;;;45.80;;
35056;SDS011;21241;51.828;19.574;2023-11-21T01:00:36;82.10;;;44.70;;
35056;SDS011;21241;51.828;19.574;2023-11-21T01:03:07;89.10;;;45.30;;
35056;SDS011;21241;51.828;19.574;2023-11-21T01:05:36;100.90;;;45.00;;
35056;SDS011;21241;51.828;19.574;2023-11-21T01:08:04;75.90;;;43.90;;
35056;SDS011;21241;51.828;19.574;2023-11-21T01:10:33;93.10;;;45.60;;
35056;SDS011;21241;51.828;19.574;2023-11-21T01:13:02;95.90;;;44.10;;
35056;SDS011;21241;51.828;19.574;2023-11-21T01:15:33;108.10;;;46.10;;
35056;SDS011;21241;51.828;19.574;2023-11-21T01:18:01;103.90;;;47.80;;
35056;SDS011;21241;51.828;19.574;2023-11-21T01:20:31;111.20;;;48.00;;
35056;SDS011;21241;51.828;19.574;2023-11-21T01:22:59;89.90;;;44.90;;
35056;SDS011;21241;51.828;19.574;2023-11-21T01:25:27;87.10;;;45.60;;
35056;SDS011;21241;51.828;19.574;2023-11-21T01:27:55;98.70;;;46.70;;
35056;SDS011;21241;51.828;19.574;2023-11-21T01:30:23;113.50;;;49.00;;
35056;SDS011;21241;51.828;19.574;2023-11-21T01:32:53;93.30;;;47.30;;
35056;SDS011;21241;51.828;19.574;2023-11-21T01:35:21;98.90;;;47.90;;
35056;SDS011;21241;51.828;19.574;2023-11-21T01:37:49;100.30;;;46.90;;
35056;SDS011;21241;51.828;19.574;2023-11-21T01:40:18;96.80;;;47.90;;
35056;SDS011;21241;51.828;19.574;2023-11-21T01:42:46;93.70;;;45.70;;
35056;SDS011;21241;51.828;19.574;2023-11-21T01:45:15;89.90;;;45.70;;
35056;SDS011;21241;51.828;19.574;2023-11-21T01:47:43;92.70;;;44.90;;
35056;SDS011;21241;51.828;19.574;2023-11-21T01:50:14;90.80;;;45.70;;
35056;SDS011;21241;51.828;19.574;2023-11-21T01:52:45;73.80;;;44.20;;
35056;SDS011;21241;51.828;19.574;2023-11-21T01:55:14;87.30;;;45.90;;
35056;SDS011;21241;51.828;19.574;2023-11-21T01:57:56;106.90;;;48.30;;
35056;SDS011;21241;51.828;19.574;2023-11-21T02:00:26;114.10;;;47.70;;
35056;SDS011;21241;51.828;19.574;2023-11-21T02:02:57;95.90;;;44.10;;
35056;SDS011;21241;51.828;19.574;2023-11-21T02:05:28;115.90;;;43.70;;
35056;SDS011;21241;51.828;19.574;2023-11-21T02:07:58;75.40;;;42.30;;
35056;SDS011;21241;51.828;19.574;2023-11-21T02:10:26;100.10;;;43.80;;
35056;SDS011;21241;51.828;19.574;2023-11-21T02:12:54;115.10;;;45.60;;
35056;SDS011;21241;51.828;19.574;2023-11-21T02:15:23;102.00;;;43.90;;
35056;SDS011;21241;51.828;19.574;2023-11-21T02:17:56;98.00;;;44.70;;
35056;SDS011;21241;51.828;19.574;2023-11-21T02:20:26;125.20;;;48.70;;
35056;SDS011;21241;51.828;19.574;2023-11-21T02:22:57;118.40;;;45.50;;
35056;SDS011;21241;51.828;19.574;2023-11-21T02:25:29;103.40;;;44.50;;
35056;SDS011;21241;51.828;19.574;2023-11-21T02:27:59;120.30;;;48.50;;
35056;SDS011;21241;51.828;19.574;2023-11-21T02:30:28;103.30;;;46.40;;
35056;SDS011;21241;51.828;19.574;2023-11-21T02:32:58;117.70;;;45.40;;
35056;SDS011;21241;51.828;19.574;2023-11-21T02:35:26;117.40;;;47.90;;
35056;SDS011;21241;51.828;19.574;2023-11-21T02:37:54;126.50;;;49.00;;
35056;SDS011;21241;51.828;19.574;2023-11-21T02:40:23;109.40;;;46.80;;
35056;SDS011;21241;51.828;19.574;2023-11-21T02:42:52;139.80;;;50.70;;
35056;SDS011;21241;51.828;19.574;2023-11-21T02:45:20;128.30;;;49.10;;
35056;SDS011;21241;51.828;19.574;2023-11-21T02:47:51;104.70;;;48.20;;
35056;SDS011;21241;51.828;19.574;2023-11-21T02:50:21;104.10;;;46.60;;
35056;SDS011;21241;51.828;19.574;2023-11-21T02:52:51;88.30;;;46.00;;
35056;SDS011;21241;51.828;19.574;2023-11-21T02:55:20;131.60;;;49.90;;
35056;SDS011;21241;51.828;19.574;2023-11-21T02:57:48;108.40;;;48.50;;
35056;SDS011;21241;51.828;19.574;2023-11-21T03:00:16;124.60;;;47.70;;
35056;SDS011;21241;51.828;19.574;2023-11-21T03:02:44;127.90;;;50.00;;
35056;SDS011;21241;51.828;19.574;2023-11-21T03:05:15;121.40;;;50.10;;
35056;SDS011;21241;51.828;19.574;2023-11-21T03:07:43;172.50;;;53.90;;
35056;SDS011;21241;51.828;19.574;2023-11-21T03:10:11;138.80;;;50.50;;
35056;SDS011;21241;51.828;19.574;2023-11-21T03:12:39;136.10;;;50.50;;
35056;SDS011;21241;51.828;19.574;2023-11-21T03:15:08;135.30;;;49.50;;
35056;SDS011;21241;51.828;19.574;2023-11-21T03:17:37;117.10;;;47.60;;
35056;SDS011;21241;51.828;19.574;2023-11-21T03:20:05;152.40;;;50.10;;
35056;SDS011;21241;51.828;19.574;2023-11-21T03:22:34;126.60;;;50.20;;
35056;SDS011;21241;51.828;19.574;2023-11-21T03:25:02;115.40;;;49.40;;
35056;SDS011;21241;51.828;19.574;2023-11-21T03:27:30;115.70;;;49.30;;
35056;SDS011;21241;51.828;19.574;2023-11-21T03:29:58;119.60;;;50.40;;
35056;SDS011;21241;51.828;19.574;2023-11-21T03:32:26;103.80;;;47.60;;
35056;SDS011;21241;51.828;19.574;2023-11-21T03:34:55;103.90;;;51.00;;
35056;SDS011;21241;51.828;19.574;2023-11-21T03:37:24;115.60;;;49.30;;
35056;SDS011;21241;51.828;19.574;2023-11-21T03:39:55;98.00;;;49.00;;
35056;SDS011;21241;51.828;19.574;2023-11-21T03:42:24;97.30;;;47.10;;
35056;SDS011;21241;51.828;19.574;2023-11-21T03:44:55;103.50;;;51.20;;
35056;SDS011;21241;51.828;19.574;2023-11-21T03:47:23;108.80;;;48.10;;
35056;SDS011;21241;51.828;19.574;2023-11-21T03:49:51;125.70;;;50.10;;
35056;SDS011;21241;51.828;19.574;2023-11-21T03:52:19;141.70;;;51.00;;
35056;SDS011;21241;51.828;19.574;2023-11-21T03:54:47;107.90;;;49.20;;
35056;SDS011;21241;51.828;19.574;2023-11-21T03:57:15;133.50;;;49.00;;
35056;SDS011;21241;51.828;19.574;2023-11-21T03:59:43;138.40;;;49.30;;
35056;SDS011;21241;51.828;19.574;2023-11-21T04:02:11;121.90;;;47.30;;
35056;SDS011;21241;51.828;19.574;2023-11-21T04:04:39;107.20;;;45.90;;
35056;SDS011;21241;51.828;19.574;2023-11-21T04:07:07;125.20;;;48.90;;
35056;SDS011;21241;51.828;19.574;2023-11-21T04:09:35;131.80;;;46.30;;
35056;SDS011;21241;51.828;19.574;2023-11-21T04:12:03;112.00;;;42.50;;
35056;SDS011;21241;51.828;19.574;2023-11-21T04:14:32;93.90;;;41.30;;
35056;SDS011;21241;51.828;19.574;2023-11-21T04:17:00;103.30;;;41.00;;
35056;SDS011;21241;51.828;19.574;2023-11-21T04:19:28;98.90;;;42.50;;
35056;SDS011;21241;51.828;19.574;2023-11-21T04:21:56;95.10;;;41.50;;
35056;SDS011;21241;51.828;19.574;2023-11-21T04:24:24;86.60;;;39.90;;
35056;SDS011;21241;51.828;19.574;2023-11-21T04:26:51;114.80;;;42.20;;
35056;SDS011;21241;51.828;19.574;2023-11-21T04:29:19;111.00;;;42.60;;
35056;SDS011;21241;51.828;19.574;2023-11-21T04:31:47;99.90;;;39.30;;
35056;SDS011;21241;51.828;19.574;2023-11-21T04:34:16;108.40;;;42.00;;
35056;SDS011;21241;51.828;19.574;2023-11-21T04:36:44;110.60;;;42.70;;
35056;SDS011;21241;51.828;19.574;2023-11-21T04:39:12;101.10;;;41.80;;
35056;SDS011;21241;51.828;19.574;2023-11-21T04:41:40;82.80;;;40.00;;
35056;SDS011;21241;51.828;19.574;2023-11-21T04:44:08;105.90;;;42.30;;
35056;SDS011;21241;51.828;19.574;2023-11-21T04:46:36;102.40;;;40.70;;
35056;SDS011;21241;51.828;19.574;2023-11-21T04:49:04;111.30;;;42.00;;
35056;SDS011;21241;51.828;19.574;2023-11-21T04:51:32;124.40;;;44.20;;
35056;SDS011;21241;51.828;19.574;2023-11-21T04:54:00;93.40;;;41.90;;
35056;SDS011;21241;51.828;19.574;2023-11-21T04:56:28;98.80;;;42.40;;
35056;SDS011;21241;51.828;19.574;2023-11-21T04:58:56;113.10;;;44.00;;
35056;SDS011;21241;51.828;19.574;2023-11-21T05:01:24;124.50;;;44.90;;
35056;SDS011;21241;51.828;19.574;2023-11-21T05:03:52;105.50;;;42.00;;
35056;SDS011;21241;51.828;19.574;2023-11-21T05:06:20;96.90;;;38.90;;
35056;SDS011;21241;51.828;19.574;2023-11-21T05:08:48;81.40;;;39.40;;
35056;SDS011;21241;51.828;19.574;2023-11-21T05:11:25;105.70;;;40.80;;
35056;SDS011;21241;51.828;19.574;2023-11-21T05:13:54;109.30;;;40.80;;
35056;SDS011;21241;51.828;19.574;2023-11-21T05:16:25;98.30;;;39.80;;
35056;SDS011;21241;51.828;19.574;2023-11-21T05:18:55;86.70;;;38.60;;
35056;SDS011;21241;51.828;19.574;2023-11-21T05:21:28;105.80;;;38.70;;
35056;SDS011;21241;51.828;19.574;2023-11-21T05:24:00;116.40;;;37.70;;
35056;SDS011;21241;51.828;19.574;2023-11-21T05:26:28;83.60;;;37.30;;
35056;SDS011;21241;51.828;19.574;2023-11-21T05:28:55;67.60;;;35.50;;
35056;SDS011;21241;51.828;19.574;2023-11-21T05:31:24;63.60;;;35.40;;
35056;SDS011;21241;51.828;19.574;2023-11-21T05:33:52;80.90;;;35.50;;
35056;SDS011;21241;51.828;19.574;2023-11-21T05:36:20;77.70;;;35.30;;
35056;SDS011;21241;51.828;19.574;2023-11-21T05:38:48;71.90;;;35.30;;
35056;SDS011;21241;51.828;19.574;2023-11-21T05:41:16;69.30;;;35.60;;
35056;SDS011;21241;51.828;19.574;2023-11-21T05:43:44;79.20;;;36.70;;
35056;SDS011;21241;51.828;19.574;2023-11-21T05:46:12;75.60;;;36.10;;
35056;SDS011;21241;51.828;19.574;2023-11-21T05:48:41;72.80;;;37.20;;
35056;SDS011;21241;51.828;19.574;2023-11-21T05:51:09;87.60;;;37.00;;
35056;SDS011;21241;51.828;19.574;2023-11-21T05:53:40;86.90;;;34.50;;
35056;SDS011;21241;51.828;19.574;2023-11-21T05:56:08;79.30;;;34.60;;
35056;SDS011;21241;51.828;19.574;2023-11-21T05:58:36;67.30;;;35.10;;
35056;SDS011;21241;51.828;19.574;2023-11-21T06:01:05;80.30;;;34.20;;
35056;SDS011;21241;51.828;19.574;2023-11-21T06:03:35;67.00;;;34.30;;
35056;SDS011;21241;51.828;19.574;2023-11-21T06:06:04;62.50;;;31.90;;
35056;SDS011;21241;51.828;19.574;2023-11-21T06:08:32;61.80;;;32.50;;
35056;SDS011;21241;51.828;19.574;2023-11-21T06:11:00;53.80;;;29.30;;
35056;SDS011;21241;51.828;19.574;2023-11-21T06:13:28;61.90;;;30.90;;
35056;SDS011;21241;51.828;19.574;2023-11-21T06:15:56;46.40;;;27.80;;
35056;SDS011;21241;51.828;19.574;2023-11-21T06:18:24;61.80;;;30.70;;
35056;SDS011;21241;51.828;19.574;2023-11-21T06:20:52;66.50;;;30.60;;
35056;SDS011;21241;51.828;19.574;2023-11-21T06:23:20;46.60;;;29.30;;
35056;SDS011;21241;51.828;19.574;2023-11-21T06:25:48;44.40;;;27.50;;
35056;SDS011;21241;51.828;19.574;2023-11-21T06:28:16;48.60;;;28.80;;
35056;SDS011;21241;51.828;19.574;2023-11-21T06:30:46;66.60;;;34.80;;
35056;SDS011;21241;51.828;19.574;2023-11-21T06:33:14;61.50;;;36.10;;
35056;SDS011;21241;51.828;19.574;2023-11-21T06:35:42;48.50;;;27.60;;
35056;SDS011;21241;51.828;19.574;2023-11-21T06:38:10;44.70;;;28.20;;
35056;SDS011;21241;51.828;19.574;2023-11-21T06:40:38;54.80;;;34.80;;
35056;SDS011;21241;51.828;19.574;2023-11-21T06:43:06;53.10;;;33.30;;
35056;SDS011;21241;51.828;19.574;2023-11-21T06:45:34;46.60;;;32.70;;
35056;SDS011;21241;51.828;19.574;2023-11-21T06:48:02;33.50;;;24.20;;
35056;SDS011;21241;51.828;19.574;2023-11-21T06:50:31;40.50;;;27.10;;
35056;SDS011;21241;51.828;19.574;2023-11-21T06:52:59;41.30;;;29.80;;
35056;SDS011;21241;51.828;19.574;2023-11-21T06:55:27;45.00;;;31.60;;
35056;SDS011;21241;51.828;19.574;2023-11-21T06:57:54;38.10;;;29.50;;
35056;SDS011;21241;51.828;19.574;2023-11-21T07:00:22;35.10;;;23.70;;
35056;SDS011;21241;51.828;19.574;2023-11-21T07:02:50;42.50;;;27.90;;
35056;SDS011;21241;51.828;19.574;2023-11-21T07:05:19;41.60;;;30.00;;
35056;SDS011;21241;51.828;19.574;2023-11-21T07:07:49;37.40;;;24.30;;
35056;SDS011;21241;51.828;19.574;2023-11-21T07:10:18;41.00;;;28.10;;
35056;SDS011;21241;51.828;19.574;2023-11-21T07:12:46;39.10;;;30.60;;
35056;SDS011;21241;51.828;19.574;2023-11-21T07:15:14;33.90;;;23.80;;
35056;SDS011;21241;51.828;19.574;2023-11-21T07:17:42;42.60;;;31.40;;
35056;SDS011;21241;51.828;19.574;2023-11-21T07:20:12;50.60;;;34.40;;
35056;SDS011;21241;51.828;19.574;2023-11-21T07:22:41;41.10;;;28.50;;
35056;SDS011;21241;51.828;19.574;2023-11-21T07:25:09;47.00;;;33.40;;
35056;SDS011;21241;51.828;19.574;2023-11-21T07:27:39;49.70;;;35.40;;
35056;SDS011;21241;51.828;19.574;2023-11-21T07:30:07;51.40;;;35.10;;
35056;SDS011;21241;51.828;19.574;2023-11-21T07:32:38;48.90;;;34.70;;
35056;SDS011;21241;51.828;19.574;2023-11-21T07:35:08;41.00;;;25.80;;
35056;SDS011;21241;51.828;19.574;2023-11-21T07:37:36;45.10;;;33.50;;
35056;SDS011;21241;51.828;19.574;2023-11-21T07:40:04;44.40;;;32.70;;
35056;SDS011;21241;51.828;19.574;2023-11-21T07:42:33;41.80;;;27.60;;
35056;SDS011;21241;51.828;19.574;2023-11-21T07:45:02;38.20;;;28.80;;
35056;SDS011;21241;51.828;19.574;2023-11-21T07:47:31;40.20;;;31.80;;
35056;SDS011;21241;51.828;19.574;2023-11-21T07:50:03;39.90;;;32.10;;
35056;SDS011;21241;51.828;19.574;2023-11-21T07:52:32;36.40;;;26.40;;
35056;SDS011;21241;51.828;19.574;2023-11-21T07:54:59;36.70;;;29.80;;
35056;SDS011;21241;51.828;19.574;2023-11-21T07:57:27;37.60;;;32.20;;
35056;SDS011;21241;51.828;19.574;2023-11-21T07:59:56;32.80;;;26.70;;
35056;SDS011;21241;51.828;19.574;2023-11-21T08:02:24;46.80;;;35.00;;
35056;SDS011;21241;51.828;19.574;2023-11-21T08:04:53;45.30;;;35.20;;
35056;SDS011;21241;51.828;19.574;2023-11-21T08:07:21;35.10;;;25.90;;
35056;SDS011;21241;51.828;19.574;2023-11-21T08:09:49;37.20;;;30.30;;
35056;SDS011;21241;51.828;19.574;2023-11-21T08:12:18;39.00;;;33.80;;
35056;SDS011;21241;51.828;19.574;2023-11-21T08:14:47;46.60;;;36.60;;
35056;SDS011;21241;51.828;19.574;2023-11-21T08:17:15;37.90;;;28.70;;
35056;SDS011;21241;51.828;19.574;2023-11-21T08:19:45;43.20;;;33.40;;
35056;SDS011;21241;51.828;19.574;2023-11-21T08:22:17;43.40;;;35.20;;
35056;SDS011;21241;51.828;19.574;2023-11-21T08:24:48;35.50;;;28.80;;
35056;SDS011;21241;51.828;19.574;2023-11-21T08:27:16;42.50;;;33.10;;
35056;SDS011;21241;51.828;19.574;2023-11-21T08:29:44;50.00;;;39.00;;
35056;SDS011;21241;51.828;19.574;2023-11-21T08:32:12;53.20;;;42.20;;
35056;SDS011;21241;51.828;19.574;2023-11-21T08:34:40;48.60;;;37.00;;
35056;SDS011;21241;51.828;19.574;2023-11-21T08:37:11;56.30;;;44.20;;
35056;SDS011;21241;51.828;19.574;2023-11-21T08:39:40;55.40;;;43.50;;
35056;SDS011;21241;51.828;19.574;2023-11-21T08:42:09;46.10;;;34.40;;
35056;SDS011;21241;51.828;19.574;2023-11-21T08:44:37;51.20;;;41.50;;
35056;SDS011;21241;51.828;19.574;2023-11-21T08:47:06;48.40;;;39.90;;
35056;SDS011;21241;51.828;19.574;2023-11-21T08:49:35;36.80;;;30.00;;
35056;SDS011;21241;51.828;19.574;2023-11-21T08:52:04;41.90;;;34.90;;
35056;SDS011;21241;51.828;19.574;2023-11-21T08:54:32;41.80;;;35.90;;
35056;SDS011;21241;51.828;19.574;2023-11-21T08:57:01;44.90;;;36.40;;
35056;SDS011;21241;51.828;19.574;2023-11-21T08:59:30;44.80;;;35.40;;
35056;SDS011;21241;51.828;19.574;2023-11-21T09:01:58;43.80;;;36.20;;
35056;SDS011;21241;51.828;19.574;2023-11-21T09:04:26;42.30;;;33.90;;
35056;SDS011;21241;51.828;19.574;2023-11-21T09:06:54;39.20;;;28.30;;
35056;SDS011;21241;51.828;19.574;2023-11-21T09:09:22;39.90;;;32.50;;
35056;SDS011;21241;51.828;19.574;2023-11-21T09:11:52;43.80;;;35.80;;
35056;SDS011;21241;51.828;19.574;2023-11-21T09:14:20;43.40;;;35.60;;
35056;SDS011;21241;51.828;19.574;2023-11-21T09:16:48;33.50;;;26.30;;
35056;SDS011;21241;51.828;19.574;2023-11-21T09:19:17;35.20;;;31.30;;
35056;SDS011;21241;51.828;19.574;2023-11-21T09:21:45;30.50;;;26.40;;
35056;SDS011;21241;51.828;19.574;2023-11-21T09:24:13;32.90;;;28.70;;
35056;SDS011;21241;51.828;19.574;2023-11-21T09:26:41;23.10;;;20.60;;
35056;SDS011;21241;51.828;19.574;2023-11-21T09:29:09;31.50;;;28.20;;
35056;SDS011;21241;51.828;19.574;2023-11-21T09:31:37;30.90;;;27.70;;
35056;SDS011;21241;51.828;19.574;2023-11-21T09:34:06;22.70;;;20.30;;
35056;SDS011;21241;51.828;19.574;2023-11-21T09:36:34;28.00;;;25.00;;
35056;SDS011;21241;51.828;19.574;2023-11-21T09:39:02;28.60;;;25.70;;
35056;SDS011;21241;51.828;19.574;2023-11-21T09:44:35;29.50;;;26.40;;
35056;SDS011;21241;51.828;19.574;2023-11-21T09:47:10;29.90;;;26.80;;
35056;SDS011;21241;51.828;19.574;2023-11-21T09:49:42;24.20;;;21.00;;
35056;SDS011;21241;51.828;19.574;2023-11-21T09:52:19;29.40;;;26.20;;
35056;SDS011;21241;51.828;19.574;2023-11-21T09:54:53;28.50;;;25.60;;
35056;SDS011;21241;51.828;19.574;2023-11-21T09:57:22;29.20;;;26.30;;
35056;SDS011;21241;51.828;19.574;2023-11-21T09:59:51;29.80;;;26.70;;
35056;SDS011;21241;51.828;19.574;2023-11-21T10:02:27;29.20;;;26.30;;
35056;SDS011;21241;51.828;19.574;2023-11-21T10:05:00;23.60;;;21.20;;
35056;SDS011;21241;51.828;19.574;2023-11-21T10:07:31;29.70;;;26.90;;
35056;SDS011;21241;51.828;19.574;2023-11-21T10:10:00;30.30;;;27.40;;
35056;SDS011;21241;51.828;19.574;2023-11-21T10:12:29;29.50;;;26.70;;
35056;SDS011;21241;51.828;19.574;2023-11-21T10:14:57;28.90;;;26.20;;
35056;SDS011;21241;51.828;19.574;2023-11-21T10:17:25;28.20;;;25.60;;
35056;SDS011;21241;51.828;19.574;2023-11-21T10:19:58;28.70;;;26.10;;
35056;SDS011;21241;51.828;19.574;2023-11-21T10:22:26;22.90;;;20.70;;
35056;SDS011;21241;51.828;19.574;2023-11-21T10:24:54;26.40;;;24.10;;
35056;SDS011;21241;51.828;19.574;2023-11-21T10:27:22;25.30;;;23.10;;
35056;SDS011;21241;51.828;19.574;2023-11-21T10:29:51;26.90;;;24.50;;
35056;SDS011;21241;51.828;19.574;2023-11-21T10:32:19;24.80;;;22.70;;
35056;SDS011;21241;51.828;19.574;2023-11-21T10:34:56;25.00;;;23.00;;
35056;SDS011;21241;51.828;19.574;2023-11-21T10:37:25;21.10;;;19.20;;
35056;SDS011;21241;51.828;19.574;2023-11-21T10:39:58;24.90;;;22.80;;
35056;SDS011;21241;51.828;19.574;2023-11-21T10:42:27;24.90;;;22.90;;
35056;SDS011;21241;51.828;19.574;2023-11-21T10:44:55;24.50;;;22.50;;
35056;SDS011;21241;51.828;19.574;2023-11-21T10:47:24;24.50;;;22.40;;
35056;SDS011;21241;51.828;19.574;2023-11-21T10:49:54;27.90;;;25.70;;
35056;SDS011;21241;51.828;19.574;2023-11-21T10:52:22;24.70;;;22.90;;
35056;SDS011;21241;51.828;19.574;2023-11-21T10:54:54;24.30;;;22.50;;
35056;SDS011;21241;51.828;19.574;2023-11-21T10:57:22;22.40;;;20.70;;
35056;SDS011;21241;51.828;19.574;2023-11-21T10:59:51;22.50;;;20.90;;
35056;SDS011;21241;51.828;19.574;2023-11-21T11:02:24;20.10;;;18.40;;
35056;SDS011;21241;51.828;19.574;2023-11-21T11:04:55;21.80;;;20.20;;
35056;SDS011;21241;51.828;19.574;2023-11-21T11:07:26;23.40;;;21.70;;
35056;SDS011;21241;51.828;19.574;2023-11-21T11:09:55;21.10;;;19.30;;
35056;SDS011;21241;51.828;19.574;2023-11-21T11:12:23;22.80;;;21.10;;
35056;SDS011;21241;51.828;19.574;2023-11-21T11:14:52;22.70;;;21.00;;
35056;SDS011;21241;51.828;19.574;2023-11-21T11:17:20;22.50;;;20.80;;
35056;SDS011;21241;51.828;19.574;2023-11-21T11:19:48;18.90;;;17.40;;
35056;SDS011;21241;51.828;19.574;2023-11-21T11:22:19;21.90;;;20.30;;
35056;SDS011;21241;51.828;19.574;2023-11-21T11:25:06;18.90;;;17.40;;
35056;SDS011;21241;51.828;19.574;2023-11-21T11:27:50;21.60;;;20.00;;
35056;SDS011;21241;51.828;19.574;2023-11-21T11:35:50;21.60;;;20.10;;
35056;SDS011;21241;51.828;19.574;2023-11-21T11:38:23;19.00;;;17.40;;
35056;SDS011;21241;51.828;19.574;2023-11-21T11:40:54;21.70;;;20.00;;
35056;SDS011;21241;51.828;19.574;2023-11-21T11:43:26;21.30;;;19.80;;
35056;SDS011;21241;51.828;19.574;2023-11-21T11:45:58;21.30;;;19.70;;
35056;SDS011;21241;51.828;19.574;2023-11-21T11:48:27;18.50;;;17.10;;
35056;SDS011;21241;51.828;19.574;2023-11-21T11:51:02;23.20;;;21.40;;
35056;SDS011;21241;51.828;19.574;2023-11-21T11:53:39;23.80;;;22.00;;
35056;SDS011;21241;51.828;19.574;2023-11-21T11:56:26;18.90;;;17.40;;
35056;SDS011;21241;51.828;19.574;2023-11-21T11:59:00;21.00;;;19.50;;
35056;SDS011;21241;51.828;19.574;2023-11-21T12:01:32;19.30;;;17.80;;
35056;SDS011;21241;51.828;19.574;2023-11-21T12:07:02;21.30;;;19.50;;
35056;SDS011;21241;51.828;19.574;2023-11-21T12:09:31;24.80;;;23.00;;
35056;SDS011;21241;51.828;19.574;2023-11-21T12:11:59;23.70;;;21.80;;
35056;SDS011;21241;51.828;19.574;2023-11-21T12:14:28;24.70;;;22.70;;
35056;SDS011;21241;51.828;19.574;2023-11-21T12:16:56;28.00;;;25.80;;
35056;SDS011;21241;51.828;19.574;2023-11-21T12:19:24;29.50;;;27.30;;
35056;SDS011;21241;51.828;19.574;2023-11-21T12:21:53;26.60;;;24.40;;
35056;SDS011;21241;51.828;19.574;2023-11-21T12:24:21;29.40;;;27.20;;
35056;SDS011;21241;51.828;19.574;2023-11-21T12:26:49;26.60;;;24.40;;
35056;SDS011;21241;51.828;19.574;2023-11-21T12:29:16;29.20;;;27.00;;
35056;SDS011;21241;51.828;19.574;2023-11-21T12:31:44;28.80;;;26.30;;
35056;SDS011;21241;51.828;19.574;2023-11-21T12:34:13;31.70;;;29.10;;
35056;SDS011;21241;51.828;19.574;2023-11-21T12:36:41;32.70;;;30.20;;
35056;SDS011;21241;51.828;19.574;2023-11-21T12:39:09;30.60;;;28.00;;
35056;SDS011;21241;51.828;19.574;2023-11-21T12:41:38;32.80;;;30.20;;
35056;SDS011;21241;51.828;19.574;2023-11-21T12:44:09;32.20;;;29.50;;
35056;SDS011;21241;51.828;19.574;2023-11-21T12:46:40;36.00;;;33.20;;
35056;SDS011;21241;51.828;19.574;2023-11-21T12:49:10;31.90;;;29.20;;
35056;SDS011;21241;51.828;19.574;2023-11-21T12:51:48;37.10;;;34.10;;
35056;SDS011;21241;51.828;19.574;2023-11-21T12:54:15;37.30;;;34.30;;
35056;SDS011;21241;51.828;19.574;2023-11-21T12:56:45;35.90;;;33.00;;
35056;SDS011;21241;51.828;19.574;2023-11-21T12:59:16;31.80;;;29.00;;
35056;SDS011;21241;51.828;19.574;2023-11-21T13:01:46;34.40;;;31.70;;
35056;SDS011;21241;51.828;19.574;2023-11-21T13:04:15;34.40;;;31.70;;
35056;SDS011;21241;51.828;19.574;2023-11-21T13:06:43;35.50;;;32.70;;
35056;SDS011;21241;51.828;19.574;2023-11-21T13:09:11;32.20;;;29.20;;
35056;SDS011;21241;51.828;19.574;2023-11-21T13:11:40;34.70;;;32.00;;
35056;SDS011;21241;51.828;19.574;2023-11-21T13:14:10;34.90;;;32.20;;
35056;SDS011;21241;51.828;19.574;2023-11-21T13:16:39;32.90;;;29.90;;
35056;SDS011;21241;51.828;19.574;2023-11-21T13:19:13;34.50;;;31.70;;
35056;SDS011;21241;51.828;19.574;2023-11-21T13:21:41;36.40;;;33.50;;
35056;SDS011;21241;51.828;19.574;2023-11-21T13:24:10;32.50;;;29.60;;
35056;SDS011;21241;51.828;19.574;2023-11-21T13:26:38;39.00;;;35.90;;
35056;SDS011;21241;51.828;19.574;2023-11-21T13:29:06;33.90;;;30.90;;
35056;SDS011;21241;51.828;19.574;2023-11-21T13:31:35;37.60;;;34.50;;
35056;SDS011;21241;51.828;19.574;2023-11-21T13:34:05;35.40;;;32.60;;
35056;SDS011;21241;51.828;19.574;2023-11-21T13:36:36;32.40;;;29.40;;
35056;SDS011;21241;51.828;19.574;2023-11-21T13:39:05;38.00;;;35.00;;
35056;SDS011;21241;51.828;19.574;2023-11-21T13:41:36;33.30;;;30.20;;
35056;SDS011;21241;51.828;19.574;2023-11-21T13:44:06;40.70;;;37.30;;
35056;SDS011;21241;51.828;19.574;2023-11-21T13:46:58;36.40;;;33.00;;
35056;SDS011;21241;51.828;19.574;2023-11-21T13:49:26;41.30;;;37.90;;
35056;SDS011;21241;51.828;19.574;2023-11-21T13:51:55;41.90;;;38.40;;
35056;SDS011;21241;51.828;19.574;2023-11-21T13:54:24;40.50;;;36.60;;
35056;SDS011;21241;51.828;19.574;2023-11-21T13:56:53;45.90;;;42.00;;
35056;SDS011;21241;51.828;19.574;2023-11-21T13:59:23;37.90;;;34.40;;
35056;SDS011;21241;51.828;19.574;2023-11-21T14:01:54;44.00;;;40.30;;
35056;SDS011;21241;51.828;19.574;2023-11-21T14:04:25;37.40;;;34.10;;
35056;SDS011;21241;51.828;19.574;2023-11-21T14:07:00;44.30;;;40.70;;
35056;SDS011;21241;51.828;19.574;2023-11-21T14:09:38;37.30;;;33.60;;
35056;SDS011;21241;51.828;19.574;2023-11-21T14:12:12;43.40;;;39.80;;
35056;SDS011;21241;51.828;19.574;2023-11-21T14:14:43;40.90;;;37.30;;
35056;SDS011;21241;51.828;19.574;2023-11-21T14:17:13;35.70;;;32.50;;
35056;SDS011;21241;51.828;19.574;2023-11-21T14:19:40;43.60;;;39.80;;
35056;SDS011;21241;51.828;19.574;2023-11-21T14:22:12;36.30;;;32.90;;
35056;SDS011;21241;51.828;19.574;2023-11-21T14:24:41;42.90;;;39.20;;
35056;SDS011;21241;51.828;19.574;2023-11-21T14:27:14;44.50;;;40.80;;
35056;SDS011;21241;51.828;19.574;2023-11-21T14:29:43;37.10;;;33.60;;